createdAt,value
2022-09-15T00:00:00.998Z,98391.95
2022-09-15T00:00:11.018Z,98388.88
2022-09-15T00:00:20.999Z,98395.16
2022-09-15T00:00:30.938Z,98390.84
2022-09-15T00:00:41.034Z,98388.75
2022-09-15T00:00:51.041Z,98391.66
2022-09-15T00:01:00.942Z,98392.83
2022-09-15T00:01:10.954Z,98389.17
2022-09-15T00:01:20.987Z,98392.28
2022-09-15T00:01:30.985Z,98388.26
2022-09-15T00:01:41.000Z,98383.35
2022-09-15T00:01:50.999Z,98387.76
2022-09-15T00:02:01.103Z,98387.97
2022-09-15T00:02:11.150Z,98385.85
2022-09-15T00:02:21.202Z,98388.47
2022-09-15T00:02:31.043Z,98393.37
2022-09-15T00:02:41.025Z,98388.34
2022-09-15T00:02:51.117Z,98392.66
2022-09-15T00:03:00.971Z,98392.95
2022-09-15T00:03:11.149Z,98392.70
2022-09-15T00:03:21.111Z,98390.38
2022-09-15T00:03:30.959Z,98390.25
2022-09-15T00:03:40.944Z,98393.41
2022-09-15T00:03:50.928Z,98391.41
2022-09-15T00:04:01.037Z,98391.25
2022-09-15T00:04:10.969Z,98385.94
2022-09-15T00:04:21.030Z,98389.01
2022-09-15T00:04:30.944Z,98388.43
2022-09-15T00:04:41.025Z,98393.53
2022-09-15T00:04:50.968Z,98391.12
2022-09-15T00:05:00.938Z,98390.21
2022-09-15T00:05:11.052Z,98387.22
2022-09-15T00:05:21.016Z,98390.80
2022-09-15T00:05:31.018Z,98389.17
2022-09-15T00:05:40.946Z,98393.83
2022-09-15T00:05:51.002Z,98388.72
2022-09-15T00:06:00.966Z,98393.66
2022-09-15T00:06:10.945Z,98395.32
2022-09-15T00:06:20.923Z,98394.66
2022-09-15T00:06:31.019Z,98396.16
2022-09-15T00:06:41.057Z,98391.00
2022-09-15T00:06:50.934Z,98395.78
2022-09-15T00:07:01.032Z,98394.38
2022-09-15T00:07:11.040Z,98397.86
2022-09-15T00:07:21.046Z,98401.77
2022-09-15T00:07:30.957Z,98402.02
2022-09-15T00:07:40.949Z,98396.61
2022-09-15T00:07:51.043Z,98396.48
2022-09-15T00:08:01.003Z,98396.86
2022-09-15T00:08:10.956Z,98397.28
2022-09-15T00:08:21.047Z,98391.84
2022-09-15T00:08:30.956Z,98392.62
2022-09-15T00:08:41.032Z,98398.56
2022-09-15T00:08:51.014Z,98393.30
2022-09-15T00:09:01.045Z,98391.88
2022-09-15T00:09:10.923Z,98390.72
2022-09-15T00:09:20.979Z,98395.70
2022-09-15T00:09:30.944Z,98399.52
2022-09-15T00:09:40.930Z,98398.19
2022-09-15T00:09:50.979Z,98397.90
2022-09-15T00:10:01.014Z,98400.22
2022-09-15T00:10:11.004Z,98398.16
2022-09-15T00:10:20.976Z,98395.73
2022-09-15T00:10:31.062Z,98396.08
2022-09-15T00:10:40.940Z,98397.19
2022-09-15T00:10:50.977Z,98398.36
2022-09-15T00:11:01.006Z,98396.20
2022-09-15T00:11:11.013Z,98397.78
2022-09-15T00:11:20.939Z,98397.11
2022-09-15T00:11:31.028Z,98393.30
2022-09-15T00:11:41.013Z,98393.83
2022-09-15T00:11:51.019Z,98397.31
2022-09-15T00:12:00.956Z,98396.32
2022-09-15T00:12:10.926Z,98394.88
2022-09-15T00:12:20.920Z,98395.00
2022-09-15T00:12:30.959Z,98396.16
2022-09-15T00:12:40.944Z,98398.77
2022-09-15T00:12:51.083Z,98394.00
2022-09-15T00:13:00.941Z,98395.41
2022-09-15T00:13:11.001Z,98392.67
2022-09-15T00:13:20.958Z,98393.34
2022-09-15T00:13:31.030Z,98394.29
2022-09-15T00:13:41.084Z,98392.92
2022-09-15T00:13:51.105Z,98391.18
2022-09-15T00:14:01.004Z,98390.35
2022-09-15T00:14:10.961Z,98388.14
2022-09-15T00:14:20.939Z,98391.34
2022-09-15T00:14:30.951Z,98393.84
2022-09-15T00:14:41.024Z,98389.02
2022-09-15T00:14:50.964Z,98387.64
2022-09-15T00:15:00.955Z,98387.52
2022-09-15T00:15:10.956Z,98390.72
2022-09-15T00:15:20.964Z,98386.11
2022-09-15T00:15:31.042Z,98389.48
2022-09-15T00:15:40.982Z,98389.39
2022-09-15T00:15:51.033Z,98389.05
2022-09-15T00:16:01.023Z,98389.89
2022-09-15T00:16:14.822Z,98385.44
2022-09-15T00:16:21.080Z,98387.94
2022-09-15T00:16:31.146Z,98389.19
2022-09-15T00:16:41.120Z,98389.61
2022-09-15T00:16:51.074Z,98389.77
2022-09-15T00:17:01.008Z,98387.95
2022-09-15T00:17:11.023Z,98387.28
2022-09-15T00:17:21.029Z,98387.73
2022-09-15T00:17:30.988Z,98389.14
2022-09-15T00:17:41.038Z,98387.69
2022-09-15T00:17:50.997Z,98387.90
2022-09-15T00:18:00.966Z,98387.31
2022-09-15T00:18:10.952Z,98390.73
2022-09-15T00:18:21.015Z,98388.48
2022-09-15T00:18:31.012Z,98386.65
2022-09-15T00:18:40.945Z,98391.39
2022-09-15T00:18:50.965Z,98386.82
2022-09-15T00:19:01.028Z,98386.82
2022-09-15T00:19:10.937Z,98393.67
2022-09-15T00:19:20.940Z,98389.64
2022-09-15T00:19:30.960Z,98390.84
2022-09-15T00:19:41.051Z,98389.52
2022-09-15T00:19:50.931Z,98388.56
2022-09-15T00:20:00.941Z,98391.17
2022-09-15T00:20:11.015Z,98392.55
2022-09-15T00:20:21.022Z,98393.83
2022-09-15T00:20:30.980Z,98392.34
2022-09-15T00:20:41.010Z,98390.84
2022-09-15T00:20:51.001Z,98392.27
2022-09-15T00:21:01.010Z,98393.59
2022-09-15T00:21:10.998Z,98391.23
2022-09-15T00:21:21.071Z,98391.92
2022-09-15T00:21:30.931Z,98391.51
2022-09-15T00:21:40.928Z,98392.84
2022-09-15T00:21:50.981Z,98390.59
2022-09-15T00:22:00.973Z,98395.66
2022-09-15T00:22:11.058Z,98392.13
2022-09-15T00:22:20.993Z,98396.25
2022-09-15T00:22:31.040Z,98391.84
2022-09-15T00:22:41.039Z,98396.50
2022-09-15T00:22:51.184Z,98394.50
2022-09-15T00:23:01.031Z,98396.28
2022-09-15T00:23:10.989Z,98395.17
2022-09-15T00:23:20.939Z,98394.00
2022-09-15T00:23:30.997Z,98390.84
2022-09-15T00:23:40.930Z,98395.75
2022-09-15T00:23:50.992Z,98391.85
2022-09-15T00:24:00.957Z,98392.50
2022-09-15T00:24:11.003Z,98393.17
2022-09-15T00:24:21.014Z,98395.17
2022-09-15T00:24:30.943Z,98393.34
2022-09-15T00:24:40.945Z,98390.77
2022-09-15T00:24:50.973Z,98397.50
2022-09-15T00:25:00.968Z,98396.17
2022-09-15T00:25:10.960Z,98393.67
2022-09-15T00:25:21.027Z,98395.84
2022-09-15T00:25:30.956Z,98392.17
2022-09-15T00:25:40.937Z,98394.01
2022-09-15T00:25:50.973Z,98396.00
2022-09-15T00:26:00.940Z,98396.17
2022-09-15T00:26:10.926Z,98400.61
2022-09-15T00:26:21.011Z,98389.69
2022-09-15T00:26:31.012Z,98394.01
2022-09-15T00:26:40.952Z,98396.70
2022-09-15T00:26:50.970Z,98394.62
2022-09-15T00:27:00.975Z,98396.67
2022-09-15T00:27:10.933Z,98393.34
2022-09-15T00:27:20.981Z,98400.11
2022-09-15T00:27:30.942Z,98396.38
2022-09-15T00:27:40.977Z,98399.44
2022-09-15T00:27:50.958Z,98395.29
2022-09-15T00:28:00.957Z,98396.95
2022-09-15T00:28:11.000Z,98391.14
2022-09-15T00:28:20.934Z,98395.62
2022-09-15T00:28:30.948Z,98395.62
2022-09-15T00:28:41.106Z,98396.33
2022-09-15T00:28:51.105Z,98400.94
2022-09-15T00:29:00.972Z,98395.34
2022-09-15T00:29:11.045Z,98401.52
2022-09-15T00:29:21.047Z,98399.66
2022-09-15T00:29:30.925Z,98397.99
2022-09-15T00:29:41.013Z,98393.33
2022-09-15T00:29:51.056Z,98393.92
2022-09-15T00:30:01.030Z,98395.50
2022-09-15T00:30:10.989Z,98399.98
2022-09-15T00:30:21.005Z,98397.20
2022-09-15T00:30:31.049Z,98402.86
2022-09-15T00:30:41.031Z,98399.36
2022-09-15T00:30:51.138Z,98398.70
2022-09-15T00:31:01.109Z,98399.66
2022-09-15T00:31:11.165Z,98397.95
2022-09-15T00:31:21.063Z,98398.61
2022-09-15T00:31:31.005Z,98399.20
2022-09-15T00:31:40.940Z,98397.04
2022-09-15T00:31:50.923Z,98398.28
2022-09-15T00:32:00.992Z,98398.28
2022-09-15T00:32:11.040Z,98397.70
2022-09-15T00:32:20.981Z,98396.20
2022-09-15T00:32:31.008Z,98399.78
2022-09-15T00:32:40.956Z,98394.95
2022-09-15T00:32:50.994Z,98398.86
2022-09-15T00:33:01.012Z,98398.28
2022-09-15T00:33:10.987Z,98394.30
2022-09-15T00:33:20.965Z,98397.08
2022-09-15T00:33:30.988Z,98396.36
2022-09-15T00:33:40.996Z,98398.70
2022-09-15T00:33:50.958Z,98399.58
2022-09-15T00:34:01.039Z,98394.88
2022-09-15T00:34:11.055Z,98396.78
2022-09-15T00:34:20.976Z,98396.20
2022-09-15T00:34:31.042Z,98398.03
2022-09-15T00:34:40.937Z,98398.86
2022-09-15T00:34:50.926Z,98398.28
2022-09-15T00:35:01.036Z,98398.08
2022-09-15T00:35:10.990Z,98393.76
2022-09-15T00:35:20.958Z,98395.58
2022-09-15T00:35:30.955Z,98401.52
2022-09-15T00:35:40.935Z,98394.59
2022-09-15T00:35:50.972Z,98398.73
2022-09-15T00:36:00.995Z,98393.26
2022-09-15T00:36:11.038Z,98393.59
2022-09-15T00:36:20.970Z,98397.91
2022-09-15T00:36:31.051Z,98394.45
2022-09-15T00:36:41.029Z,98397.20
2022-09-15T00:36:50.960Z,98395.29
2022-09-15T00:37:00.971Z,98395.38
2022-09-15T00:37:10.980Z,98395.09
2022-09-15T00:37:21.034Z,98396.58
2022-09-15T00:37:30.965Z,98394.41
2022-09-15T00:37:40.920Z,98393.34
2022-09-15T00:37:50.988Z,98394.33
2022-09-15T00:38:00.988Z,98395.80
2022-09-15T00:38:11.056Z,98395.12
2022-09-15T00:38:20.945Z,98397.12
2022-09-15T00:38:31.005Z,98395.20
2022-09-15T00:38:41.051Z,98392.71
2022-09-15T00:38:50.969Z,98392.05
2022-09-15T00:39:01.018Z,98391.62
2022-09-15T00:39:10.950Z,98393.34
2022-09-15T00:39:21.034Z,98392.75
2022-09-15T00:39:31.048Z,98392.59
2022-09-15T00:39:41.051Z,98390.18
2022-09-15T00:39:51.041Z,98392.51
2022-09-15T00:40:01.024Z,98391.13
2022-09-15T00:40:11.067Z,98388.80
2022-09-15T00:40:21.085Z,98391.80
2022-09-15T00:40:31.069Z,98391.55
2022-09-15T00:40:40.995Z,98390.43
2022-09-15T00:40:50.924Z,98389.80
2022-09-15T00:41:00.964Z,98390.72
2022-09-15T00:41:10.990Z,98393.42
2022-09-15T00:41:20.949Z,98391.13
2022-09-15T00:41:30.972Z,98386.77
2022-09-15T00:41:41.020Z,98392.41
2022-09-15T00:41:50.923Z,98386.81
2022-09-15T00:42:00.959Z,98390.51
2022-09-15T00:42:11.048Z,98387.77
2022-09-15T00:42:21.044Z,98393.08
2022-09-15T00:42:30.984Z,98390.92
2022-09-15T00:42:40.921Z,98389.77
2022-09-15T00:42:50.999Z,98388.77
2022-09-15T00:43:00.937Z,98392.75
2022-09-15T00:43:11.007Z,98390.64
2022-09-15T00:43:20.958Z,98389.76
2022-09-15T00:43:30.994Z,98389.26
2022-09-15T00:43:41.103Z,98388.02
2022-09-15T00:43:51.119Z,98389.27
2022-09-15T00:44:00.956Z,98389.02
2022-09-15T00:44:11.036Z,98385.45
2022-09-15T00:44:20.954Z,98385.28
2022-09-15T00:44:31.010Z,98386.15
2022-09-15T00:44:41.047Z,98386.94
2022-09-15T00:44:50.965Z,98388.39
2022-09-15T00:45:00.967Z,98388.30
2022-09-15T00:45:10.967Z,98386.77
2022-09-15T00:45:20.968Z,98385.39
2022-09-15T00:45:31.017Z,98386.31
2022-09-15T00:45:41.102Z,98388.72
2022-09-15T00:45:50.977Z,98384.07
2022-09-15T00:46:01.174Z,98383.33
2022-09-15T00:46:10.978Z,98382.49
2022-09-15T00:46:21.182Z,98383.16
2022-09-15T00:46:30.941Z,98384.73
2022-09-15T00:46:41.028Z,98382.33
2022-09-15T00:47:04.269Z,98381.66
2022-09-15T00:47:18.130Z,98382.58
2022-09-15T00:47:19.323Z,98384.69
2022-09-15T00:47:21.032Z,98380.74
2022-09-15T00:47:31.000Z,98384.16
2022-09-15T00:47:41.044Z,98381.58
2022-09-15T00:47:51.051Z,98377.64
2022-09-15T00:48:01.037Z,98382.29
2022-09-15T00:48:10.966Z,98382.45
2022-09-15T00:48:20.925Z,98382.61
2022-09-15T00:48:30.967Z,98384.12
2022-09-15T00:48:40.996Z,98383.07
2022-09-15T00:48:51.041Z,98388.64
2022-09-15T00:49:00.969Z,98381.95
2022-09-15T00:49:10.939Z,98386.27
2022-09-15T00:49:20.963Z,98380.46
2022-09-15T00:49:31.055Z,98383.90
2022-09-15T00:49:40.926Z,98387.19
2022-09-15T00:49:50.954Z,98387.94
2022-09-15T00:50:00.982Z,98389.22
2022-09-15T00:50:10.945Z,98385.39
2022-09-15T00:50:20.968Z,98386.15
2022-09-15T00:50:31.035Z,98384.08
2022-09-15T00:50:40.978Z,98384.98
2022-09-15T00:50:50.949Z,98384.52
2022-09-15T00:51:00.996Z,98376.44
2022-09-15T00:51:10.929Z,98382.05
2022-09-15T00:51:21.025Z,98384.28
2022-09-15T00:51:31.052Z,98389.19
2022-09-15T00:51:41.020Z,98388.06
2022-09-15T00:51:50.996Z,98387.32
2022-09-15T00:52:00.948Z,98385.77
2022-09-15T00:52:11.012Z,98384.00
2022-09-15T00:52:20.925Z,98382.58
2022-09-15T00:52:30.997Z,98384.11
2022-09-15T00:52:41.045Z,98386.03
2022-09-15T00:52:50.987Z,98381.45
2022-09-15T00:53:01.006Z,98388.27
2022-09-15T00:53:11.019Z,98386.94
2022-09-15T00:53:20.987Z,98382.62
2022-09-15T00:53:30.930Z,98387.27
2022-09-15T00:53:41.018Z,98385.62
2022-09-15T00:53:51.113Z,98383.37
2022-09-15T00:54:00.983Z,98386.86
2022-09-15T00:54:10.973Z,98385.95
2022-09-15T00:54:20.993Z,98381.46
2022-09-15T00:54:30.954Z,98386.45
2022-09-15T00:54:40.962Z,98387.48
2022-09-15T00:54:50.996Z,98385.45
2022-09-15T00:55:00.990Z,98385.16
2022-09-15T00:55:11.050Z,98383.58
2022-09-15T00:55:21.032Z,98382.62
2022-09-15T00:55:30.963Z,98382.80
2022-09-15T00:55:40.968Z,98384.83
2022-09-15T00:55:50.945Z,98378.64
2022-09-15T00:56:00.963Z,98382.88
2022-09-15T00:56:11.007Z,98385.33
2022-09-15T00:56:20.973Z,98380.42
2022-09-15T00:56:30.971Z,98383.95
2022-09-15T00:56:40.939Z,98383.79
2022-09-15T00:56:50.935Z,98379.30
2022-09-15T00:57:01.024Z,98382.12
2022-09-15T00:57:10.988Z,98379.62
2022-09-15T00:57:21.017Z,98379.80
2022-09-15T00:57:30.921Z,98381.30
2022-09-15T00:57:40.979Z,98379.30
2022-09-15T00:57:50.961Z,98382.74
2022-09-15T00:58:00.984Z,98379.63
2022-09-15T00:58:11.048Z,98381.12
2022-09-15T00:58:21.027Z,98384.45
2022-09-15T00:58:31.021Z,98381.83
2022-09-15T00:58:40.955Z,98383.58
2022-09-15T00:58:50.983Z,98384.12
2022-09-15T00:59:00.972Z,98380.34
2022-09-15T00:59:10.978Z,98382.58
2022-09-15T00:59:20.979Z,98385.12
2022-09-15T00:59:30.990Z,98386.78
2022-09-15T00:59:40.981Z,98387.45
2022-09-15T00:59:50.919Z,98388.94
2022-09-15T01:00:00.929Z,98389.11
2022-09-15T01:00:10.991Z,98386.61
2022-09-15T01:00:21.033Z,98382.62
2022-09-15T01:00:30.965Z,98383.30
2022-09-15T01:00:41.028Z,98386.69
2022-09-15T01:00:50.957Z,98385.33
2022-09-15T01:01:01.105Z,98386.27
2022-09-15T01:01:11.063Z,98388.48
2022-09-15T01:01:21.041Z,98384.95
2022-09-15T01:01:31.121Z,98382.30
2022-09-15T01:01:41.183Z,98389.22
2022-09-15T01:01:51.038Z,98386.39
2022-09-15T01:02:00.953Z,98386.28
2022-09-15T01:02:10.996Z,98387.28
2022-09-15T01:02:21.029Z,98382.20
2022-09-15T01:02:31.064Z,98386.45
2022-09-15T01:02:41.058Z,98386.16
2022-09-15T01:02:51.019Z,98384.78
2022-09-15T01:03:00.934Z,98386.03
2022-09-15T01:03:11.055Z,98388.48
2022-09-15T01:03:21.019Z,98384.95
2022-09-15T01:03:31.053Z,98382.80
2022-09-15T01:03:41.044Z,98382.38
2022-09-15T01:03:51.040Z,98386.28
2022-09-15T01:04:01.040Z,98383.95
2022-09-15T01:04:10.946Z,98387.61
2022-09-15T01:04:21.002Z,98385.86
2022-09-15T01:04:30.944Z,98384.57
2022-09-15T01:04:41.043Z,98387.23
2022-09-15T01:04:53.700Z,98383.66
2022-09-15T01:05:00.950Z,98386.98
2022-09-15T01:05:11.014Z,98392.80
2022-09-15T01:05:20.977Z,98389.27
2022-09-15T01:05:30.944Z,98390.47
2022-09-15T01:05:40.920Z,98388.31
2022-09-15T01:05:51.036Z,98388.23
2022-09-15T01:06:01.018Z,98385.41
2022-09-15T01:06:10.931Z,98386.48
2022-09-15T01:06:21.007Z,98388.06
2022-09-15T01:06:30.978Z,98389.52
2022-09-15T01:06:41.051Z,98390.39
2022-09-15T01:06:51.042Z,98387.73
2022-09-15T01:07:00.944Z,98385.74
2022-09-15T01:07:10.994Z,98385.74
2022-09-15T01:07:21.039Z,98386.48
2022-09-15T01:07:30.996Z,98387.81
2022-09-15T01:07:40.988Z,98386.65
2022-09-15T01:07:50.978Z,98383.36
2022-09-15T01:08:01.012Z,98386.02
2022-09-15T01:08:11.001Z,98387.73
2022-09-15T01:08:20.965Z,98384.49
2022-09-15T01:08:31.026Z,98388.23
2022-09-15T01:08:41.062Z,98384.33
2022-09-15T01:08:51.069Z,98387.23
2022-09-15T01:09:00.958Z,98388.35
2022-09-15T01:09:10.954Z,98387.85
2022-09-15T01:09:20.934Z,98385.28
2022-09-15T01:09:30.956Z,98383.49
2022-09-15T01:09:40.984Z,98390.80
2022-09-15T01:09:50.948Z,98389.22
2022-09-15T01:10:01.009Z,98386.11
2022-09-15T01:10:10.944Z,98386.11
2022-09-15T01:10:20.936Z,98382.54
2022-09-15T01:10:31.008Z,98391.43
2022-09-15T01:10:40.990Z,98386.78
2022-09-15T01:10:50.980Z,98387.02
2022-09-15T01:11:01.050Z,98387.52
2022-09-15T01:11:10.941Z,98385.62
2022-09-15T01:11:21.029Z,98392.77
2022-09-15T01:11:30.921Z,98386.98
2022-09-15T01:11:41.026Z,98388.59
2022-09-15T01:11:51.036Z,98385.70
2022-09-15T01:12:01.049Z,98382.49
2022-09-15T01:12:10.949Z,98386.56
2022-09-15T01:12:21.055Z,98385.57
2022-09-15T01:12:30.981Z,98385.83
2022-09-15T01:12:41.003Z,98390.22
2022-09-15T01:12:51.007Z,98389.64
2022-09-15T01:13:00.981Z,98386.69
2022-09-15T01:13:11.045Z,98386.53
2022-09-15T01:13:20.998Z,98389.35
2022-09-15T01:13:31.021Z,98385.86
2022-09-15T01:13:40.973Z,98387.84
2022-09-15T01:13:51.040Z,98387.98
2022-09-15T01:14:01.018Z,98388.14
2022-09-15T01:14:11.044Z,98388.52
2022-09-15T01:14:20.947Z,98387.39
2022-09-15T01:14:30.963Z,98386.15
2022-09-15T01:14:40.973Z,98389.10
2022-09-15T01:14:51.055Z,98387.52
2022-09-15T01:15:00.944Z,98385.78
2022-09-15T01:15:10.922Z,98388.44
2022-09-15T01:15:20.971Z,98386.93
2022-09-15T01:15:30.997Z,98388.44
2022-09-15T01:15:40.942Z,98387.98
2022-09-15T01:15:51.052Z,98388.59
2022-09-15T01:16:01.006Z,98386.89
2022-09-15T01:16:11.124Z,98389.42
2022-09-15T01:16:21.061Z,98382.11
2022-09-15T01:16:31.030Z,98385.94
2022-09-15T01:16:41.002Z,98386.44
2022-09-15T01:16:51.008Z,98385.61
2022-09-15T01:17:01.009Z,98386.97
2022-09-15T01:17:10.929Z,98380.04
2022-09-15T01:17:20.956Z,98385.70
2022-09-15T01:17:30.979Z,98384.61
2022-09-15T01:17:40.973Z,98380.75
2022-09-15T01:17:50.971Z,98384.85
2022-09-15T01:18:01.023Z,98381.23
2022-09-15T01:18:11.009Z,98387.97
2022-09-15T01:18:21.015Z,98380.95
2022-09-15T01:18:30.994Z,98381.62
2022-09-15T01:18:40.992Z,98384.44
2022-09-15T01:18:50.997Z,98387.97
2022-09-15T01:19:01.034Z,98385.27
2022-09-15T01:19:11.036Z,98389.22
2022-09-15T01:19:21.010Z,98385.02
2022-09-15T01:19:31.023Z,98383.86
2022-09-15T01:19:40.934Z,98382.70
2022-09-15T01:19:50.925Z,98388.47
2022-09-15T01:20:01.041Z,98386.69
2022-09-15T01:20:11.005Z,98383.52
2022-09-15T01:20:20.976Z,98387.27
2022-09-15T01:20:31.054Z,98389.42
2022-09-15T01:20:41.020Z,98387.01
2022-09-15T01:20:50.939Z,98384.98
2022-09-15T01:21:01.062Z,98382.65
2022-09-15T01:21:10.977Z,98388.71
2022-09-15T01:21:21.029Z,98383.23
2022-09-15T01:21:30.943Z,98387.55
2022-09-15T01:21:40.983Z,98389.96
2022-09-15T01:21:52.214Z,98387.13
2022-09-15T01:22:01.051Z,98384.81
2022-09-15T01:22:11.030Z,98385.88
2022-09-15T01:22:21.030Z,98386.55
2022-09-15T01:22:30.951Z,98386.97
2022-09-15T01:22:41.027Z,98386.88
2022-09-15T01:22:51.006Z,98384.09
2022-09-15T01:23:00.948Z,98385.67
2022-09-15T01:23:11.042Z,98386.09
2022-09-15T01:23:20.995Z,98384.35
2022-09-15T01:23:31.026Z,98385.09
2022-09-15T01:23:41.087Z,98384.06
2022-09-15T01:23:51.038Z,98386.05
2022-09-15T01:24:00.936Z,98384.89
2022-09-15T01:24:11.033Z,98387.20
2022-09-15T01:24:20.991Z,98384.48
2022-09-15T01:24:30.936Z,98385.31
2022-09-15T01:24:41.039Z,98385.81
2022-09-15T01:24:51.009Z,98388.91
2022-09-15T01:25:00.990Z,98388.17
2022-09-15T01:25:11.002Z,98388.59
2022-09-15T01:25:20.962Z,98389.38
2022-09-15T01:25:31.041Z,98388.62
2022-09-15T01:25:41.007Z,98390.75
2022-09-15T01:25:50.932Z,98391.62
2022-09-15T01:26:00.939Z,98391.28
2022-09-15T01:26:11.002Z,98389.16
2022-09-15T01:26:20.929Z,98391.23
2022-09-15T01:26:31.017Z,98389.58
2022-09-15T01:26:41.004Z,98392.27
2022-09-15T01:26:51.011Z,98389.95
2022-09-15T01:27:09.673Z,98390.03
2022-09-15T01:27:37.722Z,98393.02
2022-09-15T01:27:41.143Z,98389.12
2022-09-15T01:27:42.123Z,98389.41
2022-09-15T01:27:42.855Z,98386.83
2022-09-15T01:27:50.967Z,98390.61
2022-09-15T01:28:01.034Z,98389.94
2022-09-15T01:28:11.044Z,98389.64
2022-09-15T01:28:21.052Z,98389.14
2022-09-15T01:28:31.063Z,98388.53
2022-09-15T01:28:43.600Z,98389.27
2022-09-15T01:28:51.023Z,98389.81
2022-09-15T01:29:01.000Z,98387.48
2022-09-15T01:29:10.973Z,98390.48
2022-09-15T01:29:21.810Z,98388.11
2022-09-15T01:29:31.044Z,98389.27
2022-09-15T01:29:41.017Z,98388.52
2022-09-15T01:29:51.002Z,98388.06
2022-09-15T01:30:01.048Z,98390.17
2022-09-15T01:30:10.995Z,98387.02
2022-09-15T01:30:20.958Z,98386.32
2022-09-15T01:30:30.946Z,98390.09
2022-09-15T01:30:41.034Z,98391.96
2022-09-15T01:30:51.029Z,98391.05
2022-09-15T01:31:00.981Z,98391.38
2022-09-15T01:31:11.040Z,98393.20
2022-09-15T01:31:21.023Z,98390.30
2022-09-15T01:31:31.006Z,98387.93
2022-09-15T01:31:41.053Z,98387.77
2022-09-15T01:31:51.010Z,98392.41
2022-09-15T01:32:01.049Z,98390.88
2022-09-15T01:32:11.050Z,98388.22
2022-09-15T01:32:21.037Z,98393.36
2022-09-15T01:32:30.943Z,98393.91
2022-09-15T01:32:41.022Z,98398.05
2022-09-15T01:32:50.982Z,98398.47
2022-09-15T01:33:00.986Z,98392.66
2022-09-15T01:33:10.963Z,98389.58
2022-09-15T01:33:21.018Z,98389.95
2022-09-15T01:33:31.056Z,98389.45
2022-09-15T01:33:40.996Z,98390.41
2022-09-15T01:33:50.967Z,98391.06
2022-09-15T01:34:00.920Z,98390.70
2022-09-15T01:34:11.030Z,98392.69
2022-09-15T01:34:21.007Z,98385.75
2022-09-15T01:34:31.042Z,98388.83
2022-09-15T01:34:41.052Z,98391.27
2022-09-15T01:34:51.051Z,98390.11
2022-09-15T01:35:00.965Z,98391.97
2022-09-15T01:35:11.041Z,98391.59
2022-09-15T01:35:21.040Z,98388.73
2022-09-15T01:35:30.980Z,98391.97
2022-09-15T01:35:40.977Z,98387.41
2022-09-15T01:35:50.971Z,98390.80
2022-09-15T01:36:00.961Z,98390.27
2022-09-15T01:36:10.981Z,98389.51
2022-09-15T01:36:20.954Z,98394.28
2022-09-15T01:36:31.035Z,98390.67
2022-09-15T01:36:40.956Z,98390.70
2022-09-15T01:36:51.031Z,98393.28
2022-09-15T01:37:00.966Z,98392.16
2022-09-15T01:37:10.929Z,98394.57
2022-09-15T01:37:21.026Z,98395.65
2022-09-15T01:37:30.936Z,98398.39
2022-09-15T01:37:40.998Z,98393.19
2022-09-15T01:37:50.966Z,98398.05
2022-09-15T01:38:01.024Z,98395.44
2022-09-15T01:38:10.995Z,98397.09
2022-09-15T01:38:20.955Z,98396.42
2022-09-15T01:38:30.978Z,98395.89
2022-09-15T01:38:40.985Z,98395.27
2022-09-15T01:38:51.166Z,98393.36
2022-09-15T01:39:00.961Z,98391.03
2022-09-15T01:39:10.976Z,98391.73
2022-09-15T01:39:20.987Z,98393.34
2022-09-15T01:39:31.030Z,98394.59
2022-09-15T01:39:40.979Z,98393.55
2022-09-15T01:39:51.081Z,98392.26
2022-09-15T01:40:01.089Z,98391.97
2022-09-15T01:40:11.091Z,98389.81
2022-09-15T01:40:21.083Z,98391.62
2022-09-15T01:40:31.090Z,98395.12
2022-09-15T01:40:40.952Z,98395.07
2022-09-15T01:40:51.045Z,98395.73
2022-09-15T01:41:01.037Z,98395.70
2022-09-15T01:41:11.010Z,98394.48
2022-09-15T01:41:20.954Z,98393.38
2022-09-15T01:41:31.055Z,98394.91
2022-09-15T01:41:41.057Z,98392.45
2022-09-15T01:41:50.989Z,98388.21
2022-09-15T01:42:00.923Z,98393.36
2022-09-15T01:42:11.011Z,98393.94
2022-09-15T01:42:20.959Z,98397.01
2022-09-15T01:42:31.000Z,98393.36
2022-09-15T01:42:40.925Z,98397.91
2022-09-15T01:42:50.948Z,98394.43
2022-09-15T01:43:01.029Z,98392.39
2022-09-15T01:43:10.955Z,98391.81
2022-09-15T01:43:20.955Z,98396.50
2022-09-15T01:43:31.026Z,98397.24
2022-09-15T01:43:41.026Z,98393.52
2022-09-15T01:43:51.009Z,98394.53
2022-09-15T01:44:00.989Z,98394.55
2022-09-15T01:44:10.952Z,98391.22
2022-09-15T01:44:20.923Z,98395.29
2022-09-15T01:44:30.919Z,98391.14
2022-09-15T01:44:41.049Z,98395.91
2022-09-15T01:44:51.038Z,98392.50
2022-09-15T01:45:00.959Z,98390.01
2022-09-15T01:45:11.001Z,98390.55
2022-09-15T01:45:21.066Z,98394.97
2022-09-15T01:45:31.028Z,98394.27
2022-09-15T01:45:41.048Z,98393.90
2022-09-15T01:45:51.122Z,98392.56
2022-09-15T01:46:01.025Z,98392.06
2022-09-15T01:46:11.031Z,98395.76
2022-09-15T01:46:20.955Z,98396.00
2022-09-15T01:46:31.018Z,98390.98
2022-09-15T01:46:41.052Z,98396.12
2022-09-15T01:46:50.990Z,98389.66
2022-09-15T01:47:00.919Z,98393.95
2022-09-15T01:47:11.061Z,98394.62
2022-09-15T01:47:20.924Z,98391.09
2022-09-15T01:47:30.930Z,98394.74
2022-09-15T01:47:40.949Z,98390.54
2022-09-15T01:47:50.931Z,98396.60
2022-09-15T01:48:00.923Z,98392.53
2022-09-15T01:48:10.955Z,98393.69
2022-09-15T01:48:21.008Z,98393.31
2022-09-15T01:48:31.033Z,98393.31
2022-09-15T01:48:41.032Z,98394.65
2022-09-15T01:48:50.992Z,98395.81
2022-09-15T01:49:00.958Z,98397.92
2022-09-15T01:49:10.924Z,98394.77
2022-09-15T01:49:20.928Z,98392.94
2022-09-15T01:49:31.017Z,98394.05
2022-09-15T01:49:40.971Z,98393.05
2022-09-15T01:49:50.992Z,98391.98
2022-09-15T01:50:00.995Z,98397.45
2022-09-15T01:50:11.017Z,98394.95
2022-09-15T01:50:20.923Z,98396.00
2022-09-15T01:50:31.005Z,98394.80
2022-09-15T01:50:41.041Z,98391.98
2022-09-15T01:50:51.005Z,98390.98
2022-09-15T01:51:00.971Z,98392.75
2022-09-15T01:51:11.019Z,98389.34
2022-09-15T01:51:21.046Z,98392.33
2022-09-15T01:51:31.030Z,98392.21
2022-09-15T01:51:40.938Z,98390.72
2022-09-15T01:51:51.037Z,98394.23
2022-09-15T01:52:00.957Z,98392.91
2022-09-15T01:52:10.983Z,98388.02
2022-09-15T01:52:21.035Z,98390.42
2022-09-15T01:52:30.997Z,98389.27
2022-09-15T01:52:40.936Z,98391.50
2022-09-15T01:52:50.929Z,98392.75
2022-09-15T01:53:00.989Z,98389.50
2022-09-15T01:53:11.032Z,98391.87
2022-09-15T01:53:21.037Z,98391.45
2022-09-15T01:53:31.035Z,98391.20
2022-09-15T01:53:41.060Z,98390.62
2022-09-15T01:53:51.138Z,98392.53
2022-09-15T01:54:00.958Z,98390.75
2022-09-15T01:54:11.035Z,98395.20
2022-09-15T01:54:20.953Z,98392.45
2022-09-15T01:54:31.053Z,98391.99
2022-09-15T01:54:40.922Z,98389.38
2022-09-15T01:54:50.930Z,98392.21
2022-09-15T01:55:01.009Z,98391.12
2022-09-15T01:55:11.012Z,98385.98
2022-09-15T01:55:20.993Z,98385.23
2022-09-15T01:55:30.969Z,98391.53
2022-09-15T01:55:41.028Z,98388.84
2022-09-15T01:55:50.952Z,98388.47
2022-09-15T01:56:01.051Z,98387.22
2022-09-15T01:56:10.922Z,98387.07
2022-09-15T01:56:20.956Z,98386.52
2022-09-15T01:56:30.985Z,98385.95
2022-09-15T01:56:41.046Z,98389.59
2022-09-15T01:56:50.991Z,98389.14
2022-09-15T01:57:00.936Z,98387.93
2022-09-15T01:57:10.959Z,98390.09
2022-09-15T01:57:21.014Z,98386.23